sensor_id;sensor_type;location;lat;lon;timestamp;pressure;altitude;pressure_sealevel;temperature;humidity
68891;BME280;55932;48.702;8.884;2023-04-08T00:01:28;96350;;;7.3;69
68891;BME280;55932;48.702;8.884;2023-04-08T00:03:59;96360;;;7.3;69
68891;BME280;55932;48.702;8.884;2023-04-08T00:08:54;96360;;;7.3;69
68891;BME280;55932;48.702;8.884;2023-04-08T00:21:28;96370;;;7.3;69.5
68891;BME280;55932;48.702;8.884;2023-04-08T00:23:59;96370;;;7.2;69.5
68891;BME280;55932;48.702;8.884;2023-04-08T00:26:29;96370;;;7.2;69.5
68891;BME280;55932;48.702;8.884;2023-04-08T00:29:13;96370;;;7.2;69.5
68891;BME280;55932;48.702;8.884;2023-04-08T00:31:44;96370;;;7.2;69.5
68891;BME280;55932;48.702;8.884;2023-04-08T00:36:38;96380;;;7.2;69
68891;BME280;55932;48.702;8.884;2023-04-08T00:39:09;96380;;;7.2;69
68891;BME280;55932;48.702;8.884;2023-04-08T00:41:40;96380;;;7.2;69.5
68891;BME280;55932;48.702;8.884;2023-04-08T00:44:17;96380;;;7.2;69.5
68891;BME280;55932;48.702;8.884;2023-04-08T00:46:55;96380;;;7.2;69.5
68891;BME280;55932;48.702;8.884;2023-04-08T00:49:25;96380;;;7.1;69.5
68891;BME280;55932;48.702;8.884;2023-04-08T00:51:49;96380;;;7.1;69.5
68891;BME280;55932;48.702;8.884;2023-04-08T00:56:43;96380;;;7;69.5
68891;BME280;55932;48.702;8.884;2023-04-08T00:59:13;96380;;;7;69.5
68891;BME280;55932;48.702;8.884;2023-04-08T01:05:13;96380;;;7;69.5
68891;BME280;55932;48.702;8.884;2023-04-08T01:14:14;96380;;;6.9;69.5
68891;BME280;55932;48.702;8.884;2023-04-08T01:16:43;96380;;;6.9;69.5
68891;BME280;55932;48.702;8.884;2023-04-08T01:19:17;96380;;;6.9;69.5
68891;BME280;55932;48.702;8.884;2023-04-08T01:21:44;96380;;;7;69.5
68891;BME280;55932;48.702;8.884;2023-04-08T01:24:24;96380;;;7;69.5
68891;BME280;55932;48.702;8.884;2023-04-08T01:26:46;96380;;;7.1;69.5
68891;BME280;55932;48.702;8.884;2023-04-08T01:29:16;96380;;;7.1;69.5
68891;BME280;55932;48.702;8.884;2023-04-08T01:31:47;96380;;;7.2;69.5
68891;BME280;55932;48.702;8.884;2023-04-08T01:34:24;96380;;;7.1;69.5
68891;BME280;55932;48.702;8.884;2023-04-08T01:36:55;96380;;;7.2;69.5
68891;BME280;55932;48.702;8.884;2023-04-08T01:39:27;96380;;;7.2;69.5
68891;BME280;55932;48.702;8.884;2023-04-08T01:44:41;96380;;;7.1;69.5
68891;BME280;55932;48.702;8.884;2023-04-08T01:47:18;96370;;;7.1;69.5
68891;BME280;55932;48.702;8.884;2023-04-08T01:49:35;96370;;;7.1;69.5
68891;BME280;55932;48.702;8.884;2023-04-08T01:54:30;96370;;;7.1;69.5
68891;BME280;55932;48.702;8.884;2023-04-08T01:57:01;96370;;;7;69.5
68891;BME280;55932;48.702;8.884;2023-04-08T01:59:32;96370;;;6.9;69.5
68891;BME280;55932;48.702;8.884;2023-04-08T02:01:55;96370;;;6.8;70
68891;BME280;55932;48.702;8.884;2023-04-08T02:09:27;96370;;;6.9;69.5
68891;BME280;55932;48.702;8.884;2023-04-08T02:11:58;96370;;;7;69.5
68891;BME280;55932;48.702;8.884;2023-04-08T02:14:29;96370;;;6.9;69.5
68891;BME280;55932;48.702;8.884;2023-04-08T02:17:01;96370;;;6.8;70
68891;BME280;55932;48.702;8.884;2023-04-08T02:19:43;96370;;;6.8;70
68891;BME280;55932;48.702;8.884;2023-04-08T02:22:10;96370;;;6.8;69.5
68891;BME280;55932;48.702;8.884;2023-04-08T02:27:03;96360;;;6.7;69.5
68891;BME280;55932;48.702;8.884;2023-04-08T02:29:34;96370;;;6.6;70
68891;BME280;55932;48.702;8.884;2023-04-08T02:37:07;96370;;;6.5;70
68891;BME280;55932;48.702;8.884;2023-04-08T02:39:37;96370;;;6.5;70
68891;BME280;55932;48.702;8.884;2023-04-08T02:42:08;96370;;;6.5;70
68891;BME280;55932;48.702;8.884;2023-04-08T02:47:15;96370;;;6.5;70
68891;BME280;55932;48.702;8.884;2023-04-08T02:49:47;96370;;;6.5;70
68891;BME280;55932;48.702;8.884;2023-04-08T02:52:18;96370;;;6.5;70
68891;BME280;55932;48.702;8.884;2023-04-08T02:54:48;96360;;;6.5;70
68891;BME280;55932;48.702;8.884;2023-04-08T02:57:19;96370;;;6.5;70
68891;BME280;55932;48.702;8.884;2023-04-08T02:59:50;96370;;;6.5;70
68891;BME280;55932;48.702;8.884;2023-04-08T03:04:46;96370;;;6.6;70
68891;BME280;55932;48.702;8.884;2023-04-08T03:07:16;96380;;;6.6;70
68891;BME280;55932;48.702;8.884;2023-04-08T03:12:18;96380;;;6.6;70
68891;BME280;55932;48.702;8.884;2023-04-08T03:14:49;96370;;;6.6;70
68891;BME280;55932;48.702;8.884;2023-04-08T03:19:56;96380;;;6.6;70
68891;BME280;55932;48.702;8.884;2023-04-08T03:22:27;96380;;;6.6;70
68891;BME280;55932;48.702;8.884;2023-04-08T03:24:58;96380;;;6.6;70
68891;BME280;55932;48.702;8.884;2023-04-08T03:32:24;96380;;;6.5;70
68891;BME280;55932;48.702;8.884;2023-04-08T03:34:55;96380;;;6.5;70
68891;BME280;55932;48.702;8.884;2023-04-08T03:37:26;96390;;;6.4;70.5
68891;BME280;55932;48.702;8.884;2023-04-08T03:39:56;96390;;;6.4;70.5
68891;BME280;55932;48.702;8.884;2023-04-08T03:42:27;96380;;;6.4;70
68891;BME280;55932;48.702;8.884;2023-04-08T03:44:58;96390;;;6.4;70
68891;BME280;55932;48.702;8.884;2023-04-08T03:47:29;96380;;;6.4;70
68891;BME280;55932;48.702;8.884;2023-04-08T03:50:00;96390;;;6.5;70
68891;BME280;55932;48.702;8.884;2023-04-08T03:52:30;96380;;;6.4;70
68891;BME280;55932;48.702;8.884;2023-04-08T03:55:08;96380;;;6.5;70
68891;BME280;55932;48.702;8.884;2023-04-08T03:57:38;96370;;;6.5;70
68891;BME280;55932;48.702;8.884;2023-04-08T04:02:47;96380;;;6.5;70
68891;BME280;55932;48.702;8.884;2023-04-08T04:07:42;96370;;;6.4;70
68891;BME280;55932;48.702;8.884;2023-04-08T04:12:51;96370;;;6.5;70
68891;BME280;55932;48.702;8.884;2023-04-08T04:15:21;96360;;;6.5;69.5
68891;BME280;55932;48.702;8.884;2023-04-08T04:20:15;96380;;;6.4;70
68891;BME280;55932;48.702;8.884;2023-04-08T04:22:46;96380;;;6.4;70
68891;BME280;55932;48.702;8.884;2023-04-08T04:25:17;96380;;;6.3;70
68891;BME280;55932;48.702;8.884;2023-04-08T04:27:48;96380;;;6.3;70
68891;BME280;55932;48.702;8.884;2023-04-08T04:30:18;96390;;;6.3;70
68891;BME280;55932;48.702;8.884;2023-04-08T04:32:43;96390;;;6.3;70
68891;BME280;55932;48.702;8.884;2023-04-08T04:35:13;96390;;;6.3;70
68891;BME280;55932;48.702;8.884;2023-04-08T04:37:44;96400;;;6.3;70
68891;BME280;55932;48.702;8.884;2023-04-08T04:45:16;96390;;;6.3;70
68891;BME280;55932;48.702;8.884;2023-04-08T04:47:47;96390;;;6.3;70
68891;BME280;55932;48.702;8.884;2023-04-08T04:50:18;96390;;;6.3;70
68891;BME280;55932;48.702;8.884;2023-04-08T04:52:55;96400;;;6.3;70
68891;BME280;55932;48.702;8.884;2023-04-08T04:55:26;96400;;;6.2;70
68891;BME280;55932;48.702;8.884;2023-04-08T04:57:57;96400;;;6.2;70
68891;BME280;55932;48.702;8.884;2023-04-08T05:02:52;96400;;;6.3;70
68891;BME280;55932;48.702;8.884;2023-04-08T05:05:23;96400;;;6.2;70.5
68891;BME280;55932;48.702;8.884;2023-04-08T05:12:56;96410;;;6.3;70
68891;BME280;55932;48.702;8.884;2023-04-08T05:15:26;96420;;;6.3;70
68891;BME280;55932;48.702;8.884;2023-04-08T05:17:58;96420;;;6.4;70
68891;BME280;55932;48.702;8.884;2023-04-08T05:23:06;96430;;;6.6;70
68891;BME280;55932;48.702;8.884;2023-04-08T05:25:35;96430;;;6.7;69.5
68891;BME280;55932;48.702;8.884;2023-04-08T05:28:07;96420;;;6.7;69.5
68891;BME280;55932;48.702;8.884;2023-04-08T05:30:37;96420;;;6.7;69.5
68891;BME280;55932;48.702;8.884;2023-04-08T05:33:02;96420;;;6.8;69.5
68891;BME280;55932;48.702;8.884;2023-04-08T05:40:34;96420;;;6.9;69.5
68891;BME280;55932;48.702;8.884;2023-04-08T05:43:04;96430;;;7;69.5
68891;BME280;55932;48.702;8.884;2023-04-08T05:45:35;96430;;;7;69.5
68891;BME280;55932;48.702;8.884;2023-04-08T05:48:06;96430;;;7.1;69.5
68891;BME280;55932;48.702;8.884;2023-04-08T05:50:37;96430;;;7.2;69.5
68891;BME280;55932;48.702;8.884;2023-04-08T05:53:08;96430;;;7.3;69.5
68891;BME280;55932;48.702;8.884;2023-04-08T05:55:39;96440;;;7.5;69.5
68891;BME280;55932;48.702;8.884;2023-04-08T05:58:09;96440;;;7.5;69.5
68891;BME280;55932;48.702;8.884;2023-04-08T06:00:40;96440;;;7.6;69.5
68891;BME280;55932;48.702;8.884;2023-04-08T06:03:17;96440;;;7.7;69.5
68891;BME280;55932;48.702;8.884;2023-04-08T06:05:48;96440;;;7.7;69.5
68891;BME280;55932;48.702;8.884;2023-04-08T06:08:26;96450;;;7.8;69
68891;BME280;55932;48.702;8.884;2023-04-08T06:13:14;96450;;;7.8;69
68891;BME280;55932;48.702;8.884;2023-04-08T06:18:29;96460;;;7.8;69.5
68891;BME280;55932;48.702;8.884;2023-04-08T06:20:59;96460;;;7.9;69
68891;BME280;55932;48.702;8.884;2023-04-08T06:25:53;96460;;;8;69
68891;BME280;55932;48.702;8.884;2023-04-08T06:28:24;96460;;;7.9;69
68891;BME280;55932;48.702;8.884;2023-04-08T06:30:55;96470;;;7.8;69
68891;BME280;55932;48.702;8.884;2023-04-08T06:36:03;96470;;;7.8;69.5
68891;BME280;55932;48.702;8.884;2023-04-08T06:41:16;96470;;;7.9;69.5
68891;BME280;55932;48.702;8.884;2023-04-08T06:46:04;96470;;;8.2;69
68891;BME280;55932;48.702;8.884;2023-04-08T06:48:34;96470;;;8.2;68.5
68891;BME280;55932;48.702;8.884;2023-04-08T06:51:05;96480;;;8.2;69
68891;BME280;55932;48.702;8.884;2023-04-08T06:53:34;96480;;;8.3;68.5
68891;BME280;55932;48.702;8.884;2023-04-08T06:56:11;96480;;;8.3;68.5
68891;BME280;55932;48.702;8.884;2023-04-08T06:58:35;96480;;;8.3;69
68891;BME280;55932;48.702;8.884;2023-04-08T07:01:05;96490;;;8.4;68.5
68891;BME280;55932;48.702;8.884;2023-04-08T07:03:29;96490;;;8.5;68.5
68891;BME280;55932;48.702;8.884;2023-04-08T07:06:00;96480;;;9;68
68891;BME280;55932;48.702;8.884;2023-04-08T07:08:37;96480;;;9.4;67.5
68891;BME280;55932;48.702;8.884;2023-04-08T07:11:09;96480;;;9.6;67.5
68891;BME280;55932;48.702;8.884;2023-04-08T07:16:04;96480;;;9.7;67.5
68891;BME280;55932;48.702;8.884;2023-04-08T07:18:35;96480;;;9.7;67
68891;BME280;55932;48.702;8.884;2023-04-08T07:21:06;96490;;;9.1;68.5
68891;BME280;55932;48.702;8.884;2023-04-08T07:23:37;96490;;;8.7;69
68891;BME280;55932;48.702;8.884;2023-04-08T07:26:08;96490;;;8.5;69
68891;BME280;55932;48.702;8.884;2023-04-08T07:28:39;96500;;;8.5;69
68891;BME280;55932;48.702;8.884;2023-04-08T07:33:41;96500;;;8.5;69
68891;BME280;55932;48.702;8.884;2023-04-08T07:36:12;96500;;;8.4;69.5
68891;BME280;55932;48.702;8.884;2023-04-08T07:38:49;96510;;;8.3;69.5
68891;BME280;55932;48.702;8.884;2023-04-08T07:41:20;96510;;;8.3;69.5
68891;BME280;55932;48.702;8.884;2023-04-08T07:43:38;96510;;;8.4;69.5
68891;BME280;55932;48.702;8.884;2023-04-08T07:46:09;96510;;;8.4;69.5
68891;BME280;55932;48.702;8.884;2023-04-08T07:48:40;96520;;;8.6;69
68891;BME280;55932;48.702;8.884;2023-04-08T07:51:10;96510;;;8.7;69
68891;BME280;55932;48.702;8.884;2023-04-08T07:53:41;96520;;;8.9;69
68891;BME280;55932;48.702;8.884;2023-04-08T07:56:13;96520;;;8.7;69
68891;BME280;55932;48.702;8.884;2023-04-08T07:58:43;96520;;;8.8;69
68891;BME280;55932;48.702;8.884;2023-04-08T08:01:15;96510;;;8.9;69
68891;BME280;55932;48.702;8.884;2023-04-08T08:08:46;96520;;;10.1;67.5
68891;BME280;55932;48.702;8.884;2023-04-08T08:13:54;96520;;;10.8;66.5
68891;BME280;55932;48.702;8.884;2023-04-08T08:16:28;96520;;;11.7;65.5
68891;BME280;55932;48.702;8.884;2023-04-08T08:18:55;96520;;;12.2;65.5
68891;BME280;55932;48.702;8.884;2023-04-08T08:23:58;96520;;;12.8;65.5
68891;BME280;55932;48.702;8.884;2023-04-08T08:26:28;96520;;;12.4;66
68891;BME280;55932;48.702;8.884;2023-04-08T08:34:07;96520;;;11.6;67
68891;BME280;55932;48.702;8.884;2023-04-08T08:36:37;96520;;;11.5;67
68891;BME280;55932;48.702;8.884;2023-04-08T08:39:07;96520;;;11.5;67.5
68891;BME280;55932;48.702;8.884;2023-04-08T08:41:37;96530;;;11.3;68
68891;BME280;55932;48.702;8.884;2023-04-08T08:44:08;96540;;;11.2;68
68891;BME280;55932;48.702;8.884;2023-04-08T08:46:42;96540;;;11.4;67.5
68891;BME280;55932;48.702;8.884;2023-04-08T08:49:15;96540;;;11.6;67
68891;BME280;55932;48.702;8.884;2023-04-08T08:54:05;96540;;;11.8;67
68891;BME280;55932;48.702;8.884;2023-04-08T08:56:34;96550;;;11.5;67.5
68891;BME280;55932;48.702;8.884;2023-04-08T08:59:05;96560;;;11.1;68.5
68891;BME280;55932;48.702;8.884;2023-04-08T09:01:36;96550;;;11.3;68
68891;BME280;55932;48.702;8.884;2023-04-08T09:04:09;96550;;;11.7;67.5
68891;BME280;55932;48.702;8.884;2023-04-08T09:06:38;96550;;;12;67.5
68891;BME280;55932;48.702;8.884;2023-04-08T09:09:09;96550;;;12.1;67
68891;BME280;55932;48.702;8.884;2023-04-08T09:16:40;96550;;;11.3;68.5
68891;BME280;55932;48.702;8.884;2023-04-08T09:19:07;96550;;;11.8;67.5
68891;BME280;55932;48.702;8.884;2023-04-08T09:24:06;96550;;;12.5;67
68891;BME280;55932;48.702;8.884;2023-04-08T09:26:36;96550;;;13.2;66.5
68891;BME280;55932;48.702;8.884;2023-04-08T09:29:08;96550;;;14.3;64.5
68891;BME280;55932;48.702;8.884;2023-04-08T09:31:38;96550;;;15;64
68891;BME280;55932;48.702;8.884;2023-04-08T09:34:10;96550;;;14.5;66
68891;BME280;55932;48.702;8.884;2023-04-08T09:44:31;96550;;;14.6;65.5
68891;BME280;55932;48.702;8.884;2023-04-08T09:47:09;96550;;;14.2;66
68891;BME280;55932;48.702;8.884;2023-04-08T09:52:07;96540;;;13.7;67.5
68891;BME280;55932;48.702;8.884;2023-04-08T09:54:21;96550;;;14.3;66.5
68891;BME280;55932;48.702;8.884;2023-04-08T09:59:16;96550;;;14.6;66
68891;BME280;55932;48.702;8.884;2023-04-08T10:01:51;96550;;;14.9;66
68891;BME280;55932;48.702;8.884;2023-04-08T10:09:20;96550;;;16.7;64
68891;BME280;55932;48.702;8.884;2023-04-08T10:11:50;96550;;;16.2;64.5
68891;BME280;55932;48.702;8.884;2023-04-08T10:14:20;96550;;;15.5;65
68891;BME280;55932;48.702;8.884;2023-04-08T10:19:34;96550;;;15.2;66
68891;BME280;55932;48.702;8.884;2023-04-08T10:21:58;96540;;;15.3;65.5
68891;BME280;55932;48.702;8.884;2023-04-08T10:24:29;96550;;;14.5;67
68891;BME280;55932;48.702;8.884;2023-04-08T10:26:54;96550;;;14.3;67.5
68891;BME280;55932;48.702;8.884;2023-04-08T10:29:29;96550;;;14.5;68
68891;BME280;55932;48.702;8.884;2023-04-08T10:39:29;96550;;;14.5;67.5
68891;BME280;55932;48.702;8.884;2023-04-08T10:42:00;96550;;;14;68.5
68891;BME280;55932;48.702;8.884;2023-04-08T10:47:13;96550;;;13.7;68.5
68891;BME280;55932;48.702;8.884;2023-04-08T10:49:43;96550;;;13.5;68.5
68891;BME280;55932;48.702;8.884;2023-04-08T10:52:13;96550;;;13.4;69
68891;BME280;55932;48.702;8.884;2023-04-08T10:54:45;96550;;;14.1;67.5
68891;BME280;55932;48.702;8.884;2023-04-08T10:57:22;96550;;;13.7;68.5
68891;BME280;55932;48.702;8.884;2023-04-08T10:59:43;96550;;;14.3;67
68891;BME280;55932;48.702;8.884;2023-04-08T11:02:21;96550;;;13.9;68
68891;BME280;55932;48.702;8.884;2023-04-08T11:04:57;96550;;;13.3;69
